createdAt,value
2018-12-05T00:00:00.769Z,1020.14
2018-12-05T00:01:00.752Z,1020.17
2018-12-05T00:02:00.735Z,1020.15
2018-12-05T00:03:00.723Z,1020.17
2018-12-05T00:04:01.541Z,1020.20
2018-12-05T00:05:00.712Z,1020.17
2018-12-05T00:06:00.691Z,1020.23
2018-12-05T00:07:00.679Z,1020.21
2018-12-05T00:08:00.667Z,1020.20
2018-12-05T00:09:00.657Z,1020.22
2018-12-05T00:10:00.662Z,1020.26
2018-12-05T00:11:00.636Z,1020.27
2018-12-05T00:12:00.626Z,1020.27
2018-12-05T00:13:00.613Z,1020.30
2018-12-05T00:14:00.601Z,1020.33
2018-12-05T00:15:00.605Z,1020.31
2018-12-05T00:16:00.593Z,1020.26
2018-12-05T00:17:00.567Z,1020.30
2018-12-05T00:18:00.556Z,1020.32
2018-12-05T00:19:00.546Z,1020.27
2018-12-05T00:20:00.565Z,1020.32
2018-12-05T00:21:00.531Z,1020.31
2018-12-05T00:22:00.513Z,1020.35
2018-12-05T00:23:00.503Z,1020.32
2018-12-05T00:24:00.489Z,1020.34
2018-12-05T00:25:00.479Z,1020.34
2018-12-05T00:26:00.477Z,1020.30
2018-12-05T00:27:00.457Z,1020.33
2018-12-05T00:28:00.447Z,1020.32
2018-12-05T00:29:00.436Z,1020.34
2018-12-05T00:30:00.423Z,1020.32
2018-12-05T00:31:00.422Z,1020.34
2018-12-05T00:32:00.400Z,1020.35
2018-12-05T00:33:00.397Z,1020.35
2018-12-05T00:34:00.381Z,1020.38
2018-12-05T00:35:00.366Z,1020.47
2018-12-05T00:36:00.366Z,1020.40
2018-12-05T00:37:00.345Z,1020.43
2018-12-05T00:38:00.340Z,1020.42
2018-12-05T00:39:00.323Z,1020.42
2018-12-05T00:40:00.311Z,1020.45
2018-12-05T00:41:00.313Z,1020.41
2018-12-05T00:42:00.291Z,1020.43
2018-12-05T00:43:00.276Z,1020.42
2018-12-05T00:44:00.266Z,1020.40
2018-12-05T00:45:00.257Z,1020.45
2018-12-05T00:46:00.255Z,1020.43
2018-12-05T00:47:00.233Z,1020.46
2018-12-05T00:48:00.222Z,1020.42
2018-12-05T00:49:00.213Z,1020.42
2018-12-05T00:50:00.199Z,1020.41
2018-12-05T00:51:00.199Z,1020.46
2018-12-05T00:52:00.178Z,1020.52
2018-12-05T00:53:00.166Z,1020.48
2018-12-05T00:54:00.156Z,1020.52
2018-12-05T00:55:00.149Z,1020.49
2018-12-05T00:56:00.142Z,1020.52
2018-12-05T00:57:00.121Z,1020.53
2018-12-05T00:58:00.111Z,1020.54
2018-12-05T00:59:00.105Z,1020.54
2018-12-05T01:00:00.088Z,1020.53
2018-12-05T01:01:00.089Z,1020.50
2018-12-05T01:02:00.065Z,1020.57
2018-12-05T01:03:00.056Z,1020.58
2018-12-05T01:04:00.044Z,1020.59
2018-12-05T01:05:00.033Z,1020.61
2018-12-05T01:06:00.033Z,1020.62
2018-12-05T01:07:00.010Z,1020.65
2018-12-05T01:07:59.998Z,1020.64
2018-12-05T01:08:59.987Z,1020.62
2018-12-05T01:10:00.052Z,1020.61
2018-12-05T01:10:59.992Z,1020.62
2018-12-05T01:11:59.956Z,1020.65
2018-12-05T01:12:59.943Z,1020.66
2018-12-05T01:13:59.935Z,1020.68
2018-12-05T01:14:59.920Z,1020.67
2018-12-05T01:15:59.910Z,1020.64
2018-12-05T01:16:59.910Z,1020.66
2018-12-05T01:17:59.887Z,1020.69
2018-12-05T01:18:59.875Z,1020.71
2018-12-05T01:19:59.865Z,1020.73
2018-12-05T01:20:59.854Z,1020.71
2018-12-05T01:21:59.854Z,1020.77
2018-12-05T01:22:59.833Z,1020.76
2018-12-05T01:23:59.820Z,1020.73
2018-12-05T01:24:59.810Z,1020.80
2018-12-05T01:25:59.798Z,1020.83
2018-12-05T01:26:59.798Z,1020.83
2018-12-05T01:27:59.776Z,1020.82
2018-12-05T01:28:59.763Z,1020.75
2018-12-05T01:29:59.753Z,1020.83
2018-12-05T01:30:59.746Z,1020.81
2018-12-05T01:31:59.759Z,1020.78
2018-12-05T01:32:59.724Z,1020.80
2018-12-05T01:33:59.709Z,1020.78
2018-12-05T01:34:59.698Z,1020.81
2018-12-05T01:35:59.686Z,1020.80
2018-12-05T01:36:59.681Z,1020.81
2018-12-05T01:37:59.672Z,1020.82
2018-12-05T01:38:59.651Z,1020.84
2018-12-05T01:39:59.641Z,1020.81
2018-12-05T01:40:59.629Z,1020.83
2018-12-05T01:41:59.618Z,1020.83
2018-12-05T01:42:59.616Z,1020.82
2018-12-05T01:43:59.595Z,1020.81
2018-12-05T01:44:59.585Z,1020.81
2018-12-05T01:45:59.574Z,1020.84
2018-12-05T01:46:59.563Z,1020.83
2018-12-05T01:47:59.563Z,1020.81
2018-12-05T01:48:59.541Z,1020.79
2018-12-05T01:49:59.529Z,1020.78
2018-12-05T01:50:59.519Z,1020.78
2018-12-05T01:51:59.508Z,1020.78
2018-12-05T01:52:59.505Z,1020.79
2018-12-05T01:53:59.485Z,1020.76
2018-12-05T01:54:59.473Z,1020.81
2018-12-05T01:55:59.463Z,1020.80
2018-12-05T01:56:59.452Z,1020.82
2018-12-05T01:57:59.462Z,1020.82
2018-12-05T01:58:59.431Z,1020.83
2018-12-05T01:59:59.419Z,1020.82
2018-12-05T02:00:59.407Z,1020.80
2018-12-05T02:01:59.396Z,1020.77
2018-12-05T02:02:59.396Z,1020.79
2018-12-05T02:03:59.374Z,1020.77
2018-12-05T02:04:59.364Z,1020.81
2018-12-05T02:05:59.358Z,1020.84
2018-12-05T02:06:59.441Z,1020.82
2018-12-05T02:07:59.340Z,1020.81
2018-12-05T02:08:59.318Z,1020.84
2018-12-05T02:09:59.308Z,1020.84
2018-12-05T02:10:59.297Z,1020.86
2018-12-05T02:11:59.286Z,1020.87
2018-12-05T02:12:59.307Z,1020.86
2018-12-05T02:13:59.263Z,1020.92
2018-12-05T02:14:59.253Z,1020.91
2018-12-05T02:15:59.241Z,1020.89
2018-12-05T02:16:59.230Z,1020.86
2018-12-05T02:17:59.218Z,1020.87
2018-12-05T02:18:59.219Z,1020.85
2018-12-05T02:19:59.196Z,1020.84
2018-12-05T02:20:59.185Z,1020.89
2018-12-05T02:21:59.174Z,1020.87
2018-12-05T02:22:59.165Z,1020.87
2018-12-05T02:23:59.166Z,1020.85
2018-12-05T02:24:59.145Z,1020.84
2018-12-05T02:25:59.128Z,1020.88
2018-12-05T02:26:59.117Z,1020.86
2018-12-05T02:27:59.106Z,1020.85
2018-12-05T02:28:59.105Z,1020.85
2018-12-05T02:29:59.084Z,1020.83
2018-12-05T02:30:59.073Z,1020.86
2018-12-05T02:31:59.062Z,1020.88
2018-12-05T02:32:59.051Z,1020.88
2018-12-05T02:33:59.066Z,1020.84
2018-12-05T02:34:59.030Z,1020.88
2018-12-05T02:35:59.020Z,1020.93
2018-12-05T02:36:59.006Z,1020.95
2018-12-05T02:37:58.996Z,1020.96
2018-12-05T02:38:58.996Z,1020.97
2018-12-05T02:39:58.973Z,1021.01
2018-12-05T02:40:58.961Z,1021.00
2018-12-05T02:41:58.950Z,1021.02
2018-12-05T02:42:58.943Z,1020.99
2018-12-05T02:43:58.956Z,1021.00
2018-12-05T02:44:58.917Z,1021.02
2018-12-05T02:45:58.907Z,1021.02
2018-12-05T02:46:58.893Z,1021.04
2018-12-05T02:47:58.883Z,1021.01
2018-12-05T02:48:58.873Z,1021.05
2018-12-05T02:49:58.872Z,1021.02
2018-12-05T02:50:58.850Z,1021.05
2018-12-05T02:51:58.838Z,1021.04
2018-12-05T02:52:58.836Z,1021.04
2018-12-05T02:53:58.822Z,1021.04
2018-12-05T02:54:58.816Z,1021.05
2018-12-05T02:55:58.794Z,1021.06
2018-12-05T02:56:58.784Z,1021.05
2018-12-05T02:57:58.770Z,1021.09
2018-12-05T02:58:58.759Z,1021.11
2018-12-05T02:59:58.759Z,1021.15
2018-12-05T03:00:58.736Z,1021.14
2018-12-05T03:01:58.725Z,1021.14
2018-12-05T03:02:58.730Z,1021.11
2018-12-05T03:03:58.701Z,1021.11
2018-12-05T03:04:58.702Z,1021.09
2018-12-05T03:05:58.680Z,1021.18
2018-12-05T03:06:58.671Z,1021.18
2018-12-05T03:07:58.658Z,1021.22
2018-12-05T03:08:58.645Z,1021.18
2018-12-05T03:09:58.648Z,1021.19
2018-12-05T03:10:58.627Z,1021.19
2018-12-05T03:11:58.615Z,1021.22
2018-12-05T03:12:58.601Z,1021.25
2018-12-05T03:13:58.591Z,1021.25
2018-12-05T03:14:58.589Z,1021.27
2018-12-05T03:15:58.568Z,1021.25
2018-12-05T03:16:58.565Z,1021.29
2018-12-05T03:17:58.546Z,1021.25
2018-12-05T03:18:58.538Z,1021.25
2018-12-05T03:19:58.535Z,1021.22
2018-12-05T03:20:58.517Z,1021.27
2018-12-05T03:21:58.504Z,1021.19
2018-12-05T03:22:58.488Z,1021.20
2018-12-05T03:23:58.479Z,1021.21
2018-12-05T03:24:58.479Z,1021.25
2018-12-05T03:25:58.456Z,1021.22
2018-12-05T03:26:58.446Z,1021.23
2018-12-05T03:27:58.431Z,1021.23
2018-12-05T03:28:58.424Z,1021.26
2018-12-05T03:29:58.441Z,1021.27
2018-12-05T03:30:58.418Z,1021.27
2018-12-05T03:31:58.391Z,1021.36
2018-12-05T03:32:58.384Z,1021.29
2018-12-05T03:33:58.364Z,1021.34
2018-12-05T03:34:58.354Z,1021.34
2018-12-05T03:35:58.355Z,1021.39
2018-12-05T03:36:58.333Z,1021.39
2018-12-05T03:37:58.321Z,1021.37
2018-12-05T03:38:58.308Z,1021.37
2018-12-05T03:39:58.298Z,1021.34
2018-12-05T03:40:58.300Z,1021.40
2018-12-05T03:41:58.277Z,1021.39
2018-12-05T03:42:58.263Z,1021.37
2018-12-05T03:43:58.255Z,1021.37
2018-12-05T03:44:58.242Z,1021.39
2018-12-05T03:45:58.241Z,1021.37
2018-12-05T03:46:58.232Z,1021.39
2018-12-05T03:47:58.209Z,1021.37
2018-12-05T03:48:58.200Z,1021.39
2018-12-05T03:49:58.185Z,1021.45
2018-12-05T03:50:58.186Z,1021.39
2018-12-05T03:51:58.165Z,1021.41
2018-12-05T03:52:58.168Z,1021.38
2018-12-05T03:53:58.140Z,1021.35
2018-12-05T03:54:58.128Z,1021.41
2018-12-05T03:55:58.129Z,1021.37
2018-12-05T03:56:58.107Z,1021.36
2018-12-05T03:57:58.096Z,1021.35
2018-12-05T03:58:58.083Z,1021.39
2018-12-05T03:59:58.075Z,1021.37
2018-12-05T04:00:58.080Z,1021.41
2018-12-05T04:01:58.050Z,1021.37
2018-12-05T04:02:58.039Z,1021.36
2018-12-05T04:03:58.028Z,1021.40
2018-12-05T04:04:58.016Z,1021.40
2018-12-05T04:05:58.016Z,1021.46
2018-12-05T04:06:57.996Z,1021.39
2018-12-05T04:07:57.986Z,1021.45
2018-12-05T04:08:57.975Z,1021.47
2018-12-05T04:09:57.955Z,1021.45
2018-12-05T04:10:57.972Z,1021.42
2018-12-05T04:11:57.942Z,1021.47
2018-12-05T04:12:57.921Z,1021.47
2018-12-05T04:13:57.911Z,1021.50
2018-12-05T04:14:57.899Z,1021.54
2018-12-05T04:15:57.887Z,1021.53
2018-12-05T04:16:57.885Z,1021.56
2018-12-05T04:17:57.866Z,1021.59
2018-12-05T04:18:57.854Z,1021.55
2018-12-05T04:19:57.842Z,1021.56
2018-12-05T04:20:57.830Z,1021.56
2018-12-05T04:21:57.832Z,1021.57
2018-12-05T04:22:57.820Z,1021.58
2018-12-05T04:23:57.800Z,1021.56
2018-12-05T04:24:57.786Z,1021.56
2018-12-05T04:25:57.774Z,1021.54
2018-12-05T04:26:57.776Z,1021.56
2018-12-05T04:27:57.755Z,1021.54
2018-12-05T04:28:57.740Z,1021.55
2018-12-05T04:29:57.729Z,1021.61
2018-12-05T04:30:57.721Z,1021.59
2018-12-05T04:31:57.718Z,1021.55
2018-12-05T04:32:57.695Z,1021.55
2018-12-05T04:33:57.721Z,1021.58
2018-12-05T04:34:57.672Z,1021.58
2018-12-05T04:35:57.662Z,1021.58
2018-12-05T04:36:57.661Z,1021.61
2018-12-05T04:37:57.638Z,1021.60
2018-12-05T04:38:57.634Z,1021.57
2018-12-05T04:39:57.622Z,1021.60
2018-12-05T04:40:57.608Z,1021.60
2018-12-05T04:41:57.624Z,1021.62
2018-12-05T04:42:57.586Z,1021.60
2018-12-05T04:43:57.571Z,1021.61
2018-12-05T04:44:57.579Z,1021.59
2018-12-05T04:45:57.550Z,1021.63
2018-12-05T04:46:57.537Z,1021.59
2018-12-05T04:47:57.537Z,1021.57
2018-12-05T04:48:57.514Z,1021.57
2018-12-05T04:49:57.508Z,1021.65
2018-12-05T04:50:57.496Z,1021.62
2018-12-05T04:51:57.481Z,1021.68
2018-12-05T04:52:57.481Z,1021.69
2018-12-05T04:53:57.458Z,1021.67
2018-12-05T04:54:57.449Z,1021.65
2018-12-05T04:55:57.442Z,1021.75
2018-12-05T04:56:57.424Z,1021.73
2018-12-05T04:57:57.425Z,1021.77
2018-12-05T04:58:57.402Z,1021.76
2018-12-05T04:59:57.390Z,1021.81
2018-12-05T05:00:57.378Z,1021.78
2018-12-05T05:01:57.369Z,1021.80
2018-12-05T05:02:57.382Z,1021.85
2018-12-05T05:03:57.349Z,1021.78
2018-12-05T05:04:57.335Z,1021.84
2018-12-05T05:05:57.323Z,1021.85
2018-12-05T05:06:57.315Z,1021.85
2018-12-05T05:07:57.310Z,1021.87
2018-12-05T05:08:57.301Z,1021.88
2018-12-05T05:09:57.280Z,1021.91
2018-12-05T05:10:57.267Z,1021.90
2018-12-05T05:11:57.256Z,1021.90
2018-12-05T05:12:57.255Z,1021.94
2018-12-05T05:13:57.234Z,1021.94
2018-12-05T05:14:57.224Z,1021.94
2018-12-05T05:15:57.210Z,1021.99
2018-12-05T05:16:57.200Z,1021.98
2018-12-05T05:17:57.198Z,1021.96
2018-12-05T05:18:57.181Z,1022.02
2018-12-05T05:19:57.165Z,1022.04
2018-12-05T05:20:57.156Z,1022.06
2018-12-05T05:21:57.147Z,1022.03
2018-12-05T05:22:57.142Z,1022.02
2018-12-05T05:23:57.131Z,1022.07
2018-12-05T05:24:57.108Z,1022.05
2018-12-05T05:25:57.101Z,1022.07
2018-12-05T05:26:57.086Z,1022.09
2018-12-05T05:27:57.087Z,1022.07
2018-12-05T05:28:57.063Z,1022.10
2018-12-05T05:29:57.058Z,1022.07
2018-12-05T05:30:57.041Z,1022.09
2018-12-05T05:31:57.029Z,1022.12
2018-12-05T05:32:57.050Z,1022.10
2018-12-05T05:33:57.007Z,1022.05
2018-12-05T05:34:56.996Z,1022.07
2018-12-05T05:35:56.984Z,1022.10
2018-12-05T05:36:56.974Z,1022.10
2018-12-05T05:37:56.963Z,1022.13
2018-12-05T05:38:56.961Z,1022.18
2018-12-05T05:39:56.939Z,1022.19
2018-12-05T05:40:56.928Z,1022.22
2018-12-05T05:41:56.917Z,1022.17
2018-12-05T05:42:56.906Z,1022.16
2018-12-05T05:43:56.904Z,1022.20
2018-12-05T05:44:56.882Z,1022.19
2018-12-05T05:45:56.874Z,1022.22
2018-12-05T05:46:56.865Z,1022.21
2018-12-05T05:47:56.849Z,1022.27
2018-12-05T05:48:56.851Z,1022.26
2018-12-05T05:49:56.826Z,1022.24
2018-12-05T05:50:56.815Z,1022.28
2018-12-05T05:51:56.806Z,1022.24
2018-12-05T05:52:56.793Z,1022.26
2018-12-05T05:53:56.791Z,1022.25
2018-12-05T05:54:56.770Z,1022.24
2018-12-05T05:55:56.765Z,1022.23
2018-12-05T05:56:56.748Z,1022.23
2018-12-05T05:57:56.749Z,1022.22
2018-12-05T05:58:56.737Z,1022.21
2018-12-05T05:59:56.714Z,1022.21
2018-12-05T06:00:56.705Z,1022.21
2018-12-05T06:01:56.694Z,1022.20
2018-12-05T06:02:56.688Z,1022.18
2018-12-05T06:03:56.697Z,1022.23
2018-12-05T06:04:56.658Z,1022.19
2018-12-05T06:05:56.646Z,1022.17
2018-12-05T06:06:56.642Z,1022.18
2018-12-05T06:07:56.624Z,1022.17
2018-12-05T06:08:56.614Z,1022.16
2018-12-05T06:09:56.613Z,1022.16
2018-12-05T06:10:56.590Z,1022.16
2018-12-05T06:11:56.579Z,1022.17
2018-12-05T06:12:56.567Z,1022.19
2018-12-05T06:13:56.558Z,1022.21
2018-12-05T06:14:56.555Z,1022.18
2018-12-05T06:15:56.534Z,1022.18
2018-12-05T06:16:56.522Z,1022.25
2018-12-05T06:17:56.511Z,1022.23
2018-12-05T06:18:56.501Z,1022.24
2018-12-05T06:19:56.504Z,1022.26
2018-12-05T06:20:56.478Z,1022.27
2018-12-05T06:21:56.467Z,1022.28
2018-12-05T06:22:56.454Z,1022.25
2018-12-05T06:23:56.443Z,1022.28
2018-12-05T06:24:56.444Z,1022.28
2018-12-05T06:25:56.428Z,1022.39
2018-12-05T06:26:56.410Z,1022.36
2018-12-05T06:27:56.399Z,1022.36
2018-12-05T06:28:56.387Z,1022.44
2018-12-05T06:29:56.391Z,1022.47
2018-12-05T06:30:56.367Z,1022.44
2018-12-05T06:31:56.357Z,1022.47
2018-12-05T06:32:56.342Z,1022.48
2018-12-05T06:33:56.332Z,1022.42
2018-12-05T06:34:56.354Z,1022.42
2018-12-05T06:35:56.308Z,1022.44
2018-12-05T06:36:56.300Z,1022.54
2018-12-05T06:37:56.286Z,1022.46
2018-12-05T06:38:58.612Z,1022.56
2018-12-05T06:39:56.264Z,1022.62
2018-12-05T06:40:56.263Z,1022.57
2018-12-05T06:41:56.242Z,1022.58
2018-12-05T06:42:56.237Z,1022.63
2018-12-05T06:43:56.218Z,1022.63
2018-12-05T06:44:56.209Z,1022.65
2018-12-05T06:45:56.208Z,1022.63
2018-12-05T06:46:56.184Z,1022.63
2018-12-05T06:47:56.173Z,1022.66
2018-12-05T06:48:56.162Z,1022.68
2018-12-05T06:49:56.151Z,1022.69
2018-12-05T06:50:56.148Z,1022.69
2018-12-05T06:51:56.142Z,1022.69
2018-12-05T06:52:56.117Z,1022.71
2018-12-05T06:53:56.111Z,1022.71
2018-12-05T06:54:56.094Z,1022.73
2018-12-05T06:55:56.094Z,1022.68
2018-12-05T06:56:56.072Z,1022.74
2018-12-05T06:57:56.063Z,1022.74
2018-12-05T06:58:57.047Z,1022.76
2018-12-05T06:59:56.102Z,1022.73
2018-12-05T07:00:56.040Z,1022.77
2018-12-05T07:01:56.015Z,1022.76
2018-12-05T07:02:56.007Z,1022.77
2018-12-05T07:03:56.001Z,1022.78
2018-12-05T07:04:55.983Z,1022.81
2018-12-05T07:05:55.993Z,1022.83
2018-12-05T07:06:55.973Z,1022.81
2018-12-05T07:07:55.951Z,1022.82
2018-12-05T07:08:55.937Z,1022.85
2018-12-05T07:09:55.926Z,1022.86
2018-12-05T07:10:55.929Z,1022.90
2018-12-05T07:11:55.916Z,1022.87
2018-12-05T07:12:55.893Z,1022.90
2018-12-05T07:13:55.881Z,1022.91
2018-12-05T07:14:55.870Z,1022.97
2018-12-05T07:15:55.861Z,1023.02
2018-12-05T07:16:55.868Z,1023.05
2018-12-05T07:17:55.836Z,1023.05
2018-12-05T07:18:55.825Z,1023.08
2018-12-05T07:19:55.815Z,1023.10
2018-12-05T07:20:55.801Z,1023.11
2018-12-05T07:21:55.797Z,1023.12
2018-12-05T07:22:55.791Z,1023.13
2018-12-05T07:23:55.770Z,1023.15
2018-12-05T07:24:55.757Z,1023.16
2018-12-05T07:25:55.747Z,1023.19
2018-12-05T07:26:55.789Z,1023.18
2018-12-05T07:27:55.722Z,1023.21
2018-12-05T07:28:55.713Z,1023.24
2018-12-05T07:29:55.700Z,1023.26
2018-12-05T07:30:55.691Z,1023.26
2018-12-05T07:31:55.676Z,1023.32
2018-12-05T07:32:55.683Z,1023.31
2018-12-05T07:33:55.658Z,1023.35
2018-12-05T07:34:55.647Z,1023.34
2018-12-05T07:35:55.632Z,1023.34
2018-12-05T07:36:55.624Z,1023.32
2018-12-05T07:37:55.621Z,1023.32
2018-12-05T07:38:55.605Z,1023.35
2018-12-05T07:39:55.587Z,1023.36
2018-12-05T07:40:55.576Z,1023.36
2018-12-05T07:41:55.571Z,1023.40
2018-12-05T07:42:55.573Z,1023.41
2018-12-05T07:43:55.542Z,1023.39
2018-12-05T07:44:55.533Z,1023.40
2018-12-05T07:45:55.522Z,1023.37
2018-12-05T07:46:55.508Z,1023.41
2018-12-05T07:47:55.510Z,1023.39
2018-12-05T07:48:55.487Z,1023.44
2018-12-05T07:49:55.485Z,1023.43
2018-12-05T07:50:55.463Z,1023.40
2018-12-05T07:51:55.454Z,1023.40
2018-12-05T07:52:55.451Z,1023.47
2018-12-05T07:53:55.429Z,1023.42
2018-12-05T07:54:55.420Z,1023.38
2018-12-05T07:55:55.408Z,1023.38
2018-12-05T07:56:55.396Z,1023.37
2018-12-05T07:57:55.418Z,1023.39
2018-12-05T07:58:55.380Z,1023.45
2018-12-05T07:59:55.364Z,1023.43
2018-12-05T08:00:55.352Z,1023.40
2018-12-05T08:01:55.345Z,1023.42
2018-12-05T08:02:55.335Z,1023.38
2018-12-05T08:03:55.334Z,1023.36
2018-12-05T08:04:55.308Z,1023.37
2018-12-05T08:05:55.296Z,1023.39
2018-12-05T08:06:56.053Z,1023.37
2018-12-05T08:07:55.275Z,1023.37
2018-12-05T08:08:55.273Z,1023.33
2018-12-05T08:09:55.247Z,1023.33
2018-12-05T08:10:55.238Z,1023.35
2018-12-05T08:11:55.228Z,1023.29
2018-12-05T08:12:55.217Z,1023.28
2018-12-05T08:13:55.217Z,1023.32
2018-12-05T08:14:55.195Z,1023.27
2018-12-05T08:15:55.185Z,1023.24
2018-12-05T08:16:55.173Z,1023.23
2018-12-05T08:17:55.176Z,1023.20
2018-12-05T08:18:55.160Z,1023.23
2018-12-05T08:19:55.141Z,1023.22
2018-12-05T08:20:55.127Z,1023.23
2018-12-05T08:21:55.118Z,1023.23
2018-12-05T08:22:55.110Z,1023.22
2018-12-05T08:23:55.113Z,1023.25
2018-12-05T08:24:55.089Z,1023.30
2018-12-05T08:25:55.070Z,1023.26
2018-12-05T08:26:55.059Z,1023.25
2018-12-05T08:27:55.050Z,1023.27
2018-12-05T08:28:55.656Z,1023.33
2018-12-05T08:29:55.026Z,1023.31
2018-12-05T08:30:55.017Z,1023.30
2018-12-05T08:31:55.002Z,1023.32
2018-12-05T08:32:54.991Z,1023.33
2018-12-05T08:33:54.988Z,1023.31
2018-12-05T08:34:54.973Z,1023.33
2018-12-05T08:35:54.956Z,1023.37
2018-12-05T08:36:54.944Z,1023.34
2018-12-05T08:37:54.937Z,1023.36
2018-12-05T08:38:55.069Z,1023.35
2018-12-05T08:39:54.913Z,1023.38
2018-12-05T08:40:54.900Z,1023.40
2018-12-05T08:41:54.888Z,1023.39
2018-12-05T08:42:54.872Z,1023.39
2018-12-05T08:43:54.876Z,1023.30
2018-12-05T08:44:54.855Z,1023.33
2018-12-05T08:45:54.852Z,1023.31
2018-12-05T08:46:54.831Z,1023.37
2018-12-05T08:47:54.819Z,1023.36
2018-12-05T08:48:54.846Z,1023.36
2018-12-05T08:49:54.798Z,1023.37
2018-12-05T08:50:54.786Z,1023.41
2018-12-05T08:51:54.774Z,1023.42
2018-12-05T08:52:54.764Z,1023.40
2018-12-05T08:53:54.750Z,1023.36
2018-12-05T08:54:54.754Z,1023.36
2018-12-05T08:55:54.728Z,1023.40
2018-12-05T08:56:54.720Z,1023.45
2018-12-05T08:57:54.706Z,1023.38
2018-12-05T08:58:54.695Z,1023.35
2018-12-05T08:59:54.696Z,1023.30
2018-12-05T09:00:54.675Z,1023.35
2018-12-05T09:01:54.669Z,1023.32
2018-12-05T09:02:54.650Z,1023.37
2018-12-05T09:03:54.642Z,1023.39
2018-12-05T09:04:54.637Z,1023.38
2018-12-05T09:05:54.615Z,1023.36
2018-12-05T09:06:54.603Z,1023.36
2018-12-05T09:07:54.597Z,1023.38
2018-12-05T09:08:54.581Z,1023.34
2018-12-05T09:09:54.581Z,1023.33
2018-12-05T09:10:54.559Z,1023.39
2018-12-05T09:11:54.549Z,1023.38
2018-12-05T09:12:55.055Z,1023.36
2018-12-05T09:13:54.524Z,1023.39
2018-12-05T09:14:54.525Z,1023.38
2018-12-05T09:15:54.504Z,1023.41
2018-12-05T09:16:54.491Z,1023.43
2018-12-05T09:17:54.485Z,1023.47
2018-12-05T09:18:54.476Z,1023.47
2018-12-05T09:19:54.473Z,1023.45
2018-12-05T09:20:54.450Z,1023.47
2018-12-05T09:21:54.476Z,1023.48
2018-12-05T09:22:54.424Z,1023.48
2018-12-05T09:23:54.414Z,1023.46
2018-12-05T09:24:55.058Z,1023.46
2018-12-05T09:25:54.388Z,1023.50
2018-12-05T09:26:54.378Z,1023.49
2018-12-05T09:27:54.366Z,1023.47
2018-12-05T09:28:57.387Z,1023.44
2018-12-05T09:29:54.353Z,1023.43
2018-12-05T09:30:54.333Z,1023.44
2018-12-05T09:31:54.322Z,1023.39
2018-12-05T09:32:54.315Z,1023.42
2018-12-05T09:33:54.303Z,1023.45
2018-12-05T09:34:54.325Z,1023.46
2018-12-05T09:35:54.282Z,1023.44
2018-12-05T09:36:54.264Z,1023.45
2018-12-05T09:37:54.259Z,1023.45
2018-12-05T09:38:54.239Z,1023.40
2018-12-05T09:39:54.230Z,1023.41
2018-12-05T09:40:54.232Z,1023.45
2018-12-05T09:41:54.208Z,1023.42
2018-12-05T09:42:54.197Z,1023.37
2018-12-05T09:43:54.187Z,1023.37
2018-12-05T09:44:54.177Z,1023.38
2018-12-05T09:45:54.174Z,1023.37
2018-12-05T09:46:54.162Z,1023.36
2018-12-05T09:47:54.155Z,1023.38
2018-12-05T09:49:01.151Z,1023.37
2018-12-05T09:49:54.119Z,1023.37
2018-12-05T09:50:54.117Z,1023.35
2018-12-05T09:51:54.099Z,1023.35
2018-12-05T09:52:54.082Z,1023.38
2018-12-05T09:53:54.073Z,1023.39
2018-12-05T09:54:54.062Z,1023.31
2018-12-05T09:55:54.072Z,1023.37
2018-12-05T09:56:54.038Z,1023.39
2018-12-05T09:57:54.026Z,1023.41
2018-12-05T09:58:54.014Z,1023.40
2018-12-05T09:59:54.002Z,1023.41
2018-12-05T10:00:54.003Z,1023.38
2018-12-05T10:01:53.979Z,1023.38
2018-12-05T10:02:53.971Z,1023.41
2018-12-05T10:03:53.957Z,1023.41
2018-12-05T10:04:53.946Z,1023.44
2018-12-05T10:05:53.944Z,1023.41
2018-12-05T10:06:53.925Z,1023.43
2018-12-05T10:07:53.912Z,1023.43
2018-12-05T10:08:53.901Z,1023.41
2018-12-05T10:09:53.890Z,1023.44
2018-12-05T10:10:53.890Z,1023.44
2018-12-05T10:11:53.872Z,1023.47
2018-12-05T10:12:53.856Z,1023.44
2018-12-05T10:13:53.846Z,1023.49
2018-12-05T10:14:53.832Z,1023.48
2018-12-05T10:15:53.837Z,1023.50
2018-12-05T10:16:53.810Z,1023.51
2018-12-05T10:17:53.803Z,1023.48
2018-12-05T10:18:53.793Z,1023.51
2018-12-05T10:19:53.783Z,1023.53
2018-12-05T10:20:56.150Z,1023.53
2018-12-05T10:21:53.756Z,1023.49
2018-12-05T10:22:53.747Z,1023.49
2018-12-05T10:23:53.733Z,1023.48
2018-12-05T10:24:53.722Z,1023.47
2018-12-05T10:25:53.710Z,1023.41
2018-12-05T10:26:53.710Z,1023.42
2018-12-05T10:27:53.757Z,1023.39
2018-12-05T10:28:53.689Z,1023.39
2018-12-05T10:29:53.667Z,1023.38
2018-12-05T10:30:53.670Z,1023.36
2018-12-05T10:31:54.124Z,1023.31
2018-12-05T10:32:53.636Z,1023.31
2018-12-05T10:33:53.625Z,1023.30
2018-12-05T10:34:53.617Z,1023.26
2018-12-05T10:35:53.607Z,1023.25
2018-12-05T10:36:53.601Z,1023.30
2018-12-05T10:37:54.496Z,1023.29
2018-12-05T10:38:53.564Z,1023.32
2018-12-05T10:39:53.555Z,1023.34
2018-12-05T10:40:53.541Z,1023.34
2018-12-05T10:41:53.542Z,1023.29
2018-12-05T10:42:53.520Z,1023.28
2018-12-05T10:43:53.509Z,1023.30
2018-12-05T10:44:53.497Z,1023.33
2018-12-05T10:45:53.489Z,1023.28
2018-12-05T10:46:53.486Z,1023.28
2018-12-05T10:47:53.462Z,1023.24
2018-12-05T10:48:53.452Z,1023.20
2018-12-05T10:49:53.442Z,1023.21
2018-12-05T10:50:53.435Z,1023.19
2018-12-05T10:51:53.446Z,1023.21
2018-12-05T10:52:53.410Z,1023.18
2018-12-05T10:53:53.548Z,1023.16
2018-12-05T10:54:53.387Z,1023.16
2018-12-05T10:55:53.374Z,1023.16
2018-12-05T10:56:53.361Z,1023.17
2018-12-05T10:57:53.364Z,1023.18
2018-12-05T10:58:54.107Z,1023.13
2018-12-05T10:59:53.327Z,1023.14
2018-12-05T11:00:53.317Z,1023.15
2018-12-05T11:01:53.389Z,1023.14
2018-12-05T11:02:53.304Z,1023.11
2018-12-05T11:03:54.109Z,1023.13
2018-12-05T11:04:54.106Z,1023.11
2018-12-05T11:05:53.266Z,1023.17
2018-12-05T11:06:53.246Z,1023.12
2018-12-05T11:07:53.245Z,1023.11
2018-12-05T11:08:53.224Z,1023.09
2018-12-05T11:09:53.216Z,1023.08
2018-12-05T11:10:53.205Z,1023.05
2018-12-05T11:11:53.206Z,1023.08
2018-12-05T11:12:53.187Z,1023.07
2018-12-05T11:13:53.166Z,1023.04
2018-12-05T11:14:53.154Z,1023.05
2018-12-05T11:15:53.142Z,1022.98
2018-12-05T11:16:53.131Z,1023.00
2018-12-05T11:17:53.137Z,1023.00
2018-12-05T11:18:53.113Z,1023.02
2018-12-05T11:19:53.098Z,1022.94
2018-12-05T11:20:53.089Z,1022.93
2018-12-05T11:21:53.074Z,1022.99
2018-12-05T11:22:53.107Z,1022.94
2018-12-05T11:23:53.052Z,1022.98
2018-12-05T11:24:53.044Z,1022.99
2018-12-05T11:25:53.032Z,1022.97
2018-12-05T11:26:53.026Z,1022.98
2018-12-05T11:27:53.008Z,1023.00
2018-12-05T11:28:53.006Z,1023.03
2018-12-05T11:29:52.986Z,1023.02
2018-12-05T11:30:52.981Z,1023.03
2018-12-05T11:31:52.966Z,1023.01
2018-12-05T11:32:52.952Z,1022.98
2018-12-05T11:33:52.954Z,1023.00
2018-12-05T11:34:52.931Z,1022.95
2018-12-05T11:35:52.917Z,1023.03
2018-12-05T11:36:52.908Z,1022.96
2018-12-05T11:37:52.899Z,1022.97
2018-12-05T11:38:52.896Z,1022.94
2018-12-05T11:39:52.874Z,1022.92
2018-12-05T11:40:52.863Z,1022.93
2018-12-05T11:41:52.851Z,1022.93
2018-12-05T11:42:52.838Z,1022.90
2018-12-05T11:43:52.841Z,1022.95
2018-12-05T11:44:52.817Z,1022.94
2018-12-05T11:45:52.804Z,1022.96
2018-12-05T11:46:52.795Z,1022.92
2018-12-05T11:47:52.783Z,1022.93
2018-12-05T11:48:52.786Z,1022.96
2018-12-05T11:49:52.761Z,1022.95
2018-12-05T11:50:52.749Z,1022.90
2018-12-05T11:51:52.991Z,1022.88
2018-12-05T11:52:52.743Z,1022.84
2018-12-05T11:53:52.724Z,1022.92
2018-12-05T11:54:52.706Z,1022.92
2018-12-05T11:55:52.691Z,1022.89
2018-12-05T11:56:52.682Z,1022.90
2018-12-05T11:57:52.805Z,1022.86
2018-12-05T11:58:52.706Z,1022.84
2018-12-05T11:59:52.646Z,1022.81
2018-12-05T12:00:52.635Z,1022.83
2018-12-05T12:01:52.623Z,1022.82
2018-12-05T12:02:52.611Z,1022.78
2018-12-05T12:03:53.114Z,1022.81
2018-12-05T12:04:52.604Z,1022.76